Time;durP1;ratioP1;P1;durP2;ratioP2;P2;SDS_P1;SDS_P2;PMS_P1;PMS_P2;Temp;Humidity;BMP_temperature;BMP_pressure;BME280_temperature;BME280_humidity;BME280_pressure;Samples;Min_cycle;Max_cycle;Signal;HPM_P1;HPM_P2
2023/10/07 00:01:24;;;;;;;3.12;1.58;;;;;;;15.75;50.21;100351.72;4376240;32;33308;-69
2023/10/07 00:03:53;;;;;;;3.10;1.30;;;;;;;15.76;50.19;100346.22;4375973;32;33676;-69
2023/10/07 00:06:26;;;;;;;1.98;1.50;;;;;;;15.75;50.06;100333.69;4382636;32;33956;-68
2023/10/07 00:08:55;;;;;;;3.75;1.85;;;;;;;15.60;50.25;100338.56;4380358;32;33620;-69
2023/10/07 00:11:22;;;;;;;1.35;1.20;;;;;;;15.61;50.42;100339.41;4382841;32;33308;-69
2023/10/07 00:13:54;;;;;;;3.55;1.55;;;;;;;15.81;49.53;100335.00;4389866;32;35105;-69
2023/10/07 00:16:23;;;;;;;4.80;1.95;;;;;;;15.84;49.59;100329.34;4383580;32;34972;-69
2023/10/07 00:18:54;;;;;;;3.42;1.58;;;;;;;15.89;49.30;100318.13;4387333;32;33679;-69
2023/10/07 00:21:39;;;;;;;3.53;1.80;;;;;;;15.80;49.50;100319.81;4385605;32;33191;-69
2023/10/07 00:24:07;;;;;;;5.15;2.92;;;;;;;15.81;49.63;100321.50;4374870;32;33997;-69
2023/10/07 00:26:36;;;;;;;4.22;2.25;;;;;;;15.70;49.75;100308.97;4385410;32;33394;-69
2023/10/07 00:29:04;;;;;;;1.20;0.88;;;;;;;15.76;49.65;100323.75;4384537;32;32154;-69
2023/10/07 00:31:33;;;;;;;3.20;1.85;;;;;;;15.80;49.52;100314.41;4375488;32;33092;-69
2023/10/07 00:34:03;;;;;;;3.05;1.37;;;;;;;15.78;49.69;100322.63;4383373;32;33870;-69
2023/10/07 00:39:07;;;;;;;7.37;3.30;;;;;;;15.87;49.43;100309.31;4384285;32;33951;-69
2023/10/07 00:41:58;;;;;;;3.65;1.67;;;;;;;15.79;49.89;100304.59;4385294;32;32970;-69
2023/10/07 00:44:31;;;;;;;1.65;1.02;;;;;;;15.79;49.72;100304.59;4387350;32;33558;-67
2023/10/07 00:49:42;;;;;;;10.30;1.90;;;;;;;15.73;49.54;100297.03;4379395;32;33785;-68
2023/10/07 00:52:14;;;;;;;5.80;2.20;;;;;;;15.79;49.31;100288.37;4382401;32;33168;-68
2023/10/07 00:54:50;;;;;;;5.25;1.95;;;;;;;15.79;49.22;100281.19;4380424;32;33193;-67
2023/10/07 00:57:34;;;;;;;2.72;1.35;;;;;;;15.75;49.33;100279.72;4376799;32;33782;-68
2023/10/07 01:00:12;;;;;;;4.18;1.67;;;;;;;15.77;49.35;100275.03;4383873;32;34012;-68
2023/10/07 01:02:40;;;;;;;3.62;1.95;;;;;;;15.75;49.37;100268.91;4374367;32;34200;-68
2023/10/07 01:05:19;;;;;;;3.62;1.95;;;;;;;15.80;49.19;100274.78;4382433;32;35520;-68
2023/10/07 01:07:53;;;;;;;5.18;2.55;;;;;;;15.67;49.56;100262.50;4380631;32;35067;-68
2023/10/07 01:10:26;;;;;;;6.03;1.40;;;;;;;15.68;49.56;100262.34;4388070;32;33987;-69
2023/10/07 01:13:01;;;;;;;1.50;0.85;;;;;;;15.66;49.94;100263.44;4388916;32;33309;-69
2023/10/07 01:15:30;;;;;;;8.70;2.62;;;;;;;15.48;50.14;100263.22;4389781;32;34682;-70
2023/10/07 01:18:05;;;;;;;7.53;3.85;;;;;;;15.46;50.17;100257.94;4382765;32;33801;-68
2023/10/07 01:20:38;;;;;;;5.32;2.05;;;;;;;15.58;49.79;100256.88;4383964;32;33999;-69
2023/10/07 01:23:07;;;;;;;5.57;3.15;;;;;;;15.65;49.46;100257.19;4384495;32;33124;-68
2023/10/07 01:25:37;;;;;;;2.42;0.85;;;;;;;15.57;49.71;100247.09;4387264;32;33946;-68
2023/10/07 01:28:07;;;;;;;1.95;1.58;;;;;;;15.52;49.80;100249.31;4380762;32;34035;-68
2023/10/07 01:30:35;;;;;;;5.25;2.33;;;;;;;15.68;49.35;100246.16;4382790;32;33661;-69
2023/10/07 01:33:24;;;;;;;1.95;1.27;;;;;;;15.70;49.46;100235.25;4384727;32;34555;-69
2023/10/07 01:36:16;;;;;;;1.25;1.05;;;;;;;15.72;49.80;100246.75;4388075;32;34087;-68
2023/10/07 01:38:44;;;;;;;1.75;0.68;;;;;;;15.69;49.84;100241.63;4390631;32;34903;-69
2023/10/07 01:41:18;;;;;;;3.78;1.62;;;;;;;15.86;49.50;100240.13;4385064;32;34663;-68
2023/10/07 01:43:58;;;;;;;1.65;0.80;;;;;;;15.89;49.30;100245.25;4380702;32;34865;-69
2023/10/07 01:46:29;;;;;;;3.08;1.35;;;;;;;15.08;51.80;100237.84;4390788;32;33751;-69
2023/10/07 01:49:01;;;;;;;2.42;1.23;;;;;;;15.07;51.74;100246.06;4388230;32;34063;-69
2023/10/07 01:51:30;;;;;;;4.55;1.30;;;;;;;15.59;50.35;100241.53;4381266;32;34679;-70
2023/10/07 01:54:03;;;;;;;1.33;0.77;;;;;;;15.36;51.23;100241.72;4382852;32;34819;-70
2023/10/07 01:56:32;;;;;;;1.98;1.40;;;;;;;15.45;50.84;100237.37;4387516;32;33463;-70
2023/10/07 02:01:54;;;;;;;2.83;1.12;;;;;;;15.57;50.26;100230.91;4384680;32;34524;-71
2023/10/07 02:04:27;;;;;;;3.67;1.73;;;;;;;15.52;50.39;100230.44;4378725;32;32967;-70
2023/10/07 02:06:59;;;;;;;1.12;0.85;;;;;;;15.20;51.24;100232.41;4389992;32;33685;-70
2023/10/07 02:09:35;;;;;;;3.10;1.60;;;;;;;15.38;50.74;100230.81;4386367;32;35244;-70
2023/10/07 02:12:09;;;;;;;7.03;2.53;;;;;;;15.43;50.65;100228.53;4385317;32;34657;-70
2023/10/07 02:14:37;;;;;;;0.68;0.68;;;;;;;15.37;50.90;100224.53;4385990;32;33842;-71
2023/10/07 02:17:07;;;;;;;5.53;2.47;;;;;;;15.47;50.75;100226.44;4383509;32;33822;-69
2023/10/07 02:19:35;;;;;;;3.37;1.37;;;;;;;15.29;51.28;100223.50;4382860;32;33885;-68
2023/10/07 02:22:04;;;;;;;1.00;0.70;;;;;;;15.37;51.21;100223.69;4386980;32;35242;-70
2023/10/07 02:24:33;;;;;;;3.50;1.30;;;;;;;15.45;50.57;100218.47;4389887;32;34149;-69
2023/10/07 02:27:25;;;;;;;4.90;1.77;;;;;;;15.40;50.81;100214.47;4380341;32;34808;-69
2023/10/07 02:29:59;;;;;;;3.97;1.55;;;;;;;15.52;50.22;100216.94;4379983;32;32670;-69
2023/10/07 02:32:26;;;;;;;5.70;1.85;;;;;;;15.53;50.17;100213.25;4385871;32;33755;-69
2023/10/07 02:34:55;;;;;;;3.30;1.55;;;;;;;15.45;50.58;100217.63;4381573;32;33470;-69
2023/10/07 02:37:25;;;;;;;1.80;1.15;;;;;;;15.20;50.91;100213.53;4389252;32;34037;-69
2023/10/07 02:40:00;;;;;;;8.30;2.12;;;;;;;15.39;50.52;100208.22;4386709;32;33959;-69
2023/10/07 02:42:28;;;;;;;4.78;2.60;;;;;;;15.23;51.21;100203.31;4387465;32;34199;-69
2023/10/07 02:45:11;;;;;;;2.62;1.65;;;;;;;15.13;51.59;100203.25;4389990;32;32085;-70
2023/10/07 02:47:39;;;;;;;3.58;2.10;;;;;;;15.27;51.60;100196.66;4389488;32;34056;-69
2023/10/07 02:50:08;;;;;;;3.22;1.23;;;;;;;15.34;51.25;100197.84;4390879;32;34993;-69
2023/10/07 02:52:37;;;;;;;10.63;1.85;;;;;;;15.42;51.05;100196.31;4387253;32;33757;-70
2023/10/07 02:57:47;;;;;;;3.30;1.55;;;;;;;15.00;52.13;100186.44;4385582;32;34150;-72
2023/10/07 03:00:29;;;;;;;7.85;3.90;;;;;;;15.12;52.12;100187.22;4384389;32;35027;-71
2023/10/07 03:05:46;;;;;;;5.57;2.15;;;;;;;15.34;51.97;100181.69;4384538;32;33315;-72
2023/10/07 03:08:19;;;;;;;2.92;1.42;;;;;;;15.45;51.80;100183.41;4386904;32;33819;-71
2023/10/07 03:10:54;;;;;;;2.83;1.98;;;;;;;15.41;51.56;100186.50;4390424;32;33943;-71
2023/10/07 03:13:22;;;;;;;2.95;1.65;;;;;;;15.67;50.91;100178.84;4383538;32;33975;-72
2023/10/07 03:16:09;;;;;;;5.50;1.40;;;;;;;15.77;50.77;100185.97;4386995;32;34401;-75
2023/10/07 03:18:38;;;;;;;3.25;1.55;;;;;;;15.67;51.25;100182.41;4383916;32;34912;-74
2023/10/07 03:21:10;;;;;;;2.85;1.83;;;;;;;15.41;52.60;100189.19;4388725;32;33799;-75
2023/10/07 03:23:45;;;;;;;2.15;1.62;;;;;;;15.69;52.53;100184.94;4387276;32;33681;-73
2023/10/07 03:26:17;;;;;;;2.40;1.17;;;;;;;15.80;52.32;100174.91;4386081;32;34033;-72
2023/10/07 03:28:51;;;;;;;2.03;1.73;;;;;;;15.96;51.16;100171.69;4382059;32;33570;-71
2023/10/07 03:31:20;;;;;;;6.35;3.53;;;;;;;15.81;51.79;100170.38;4376006;32;34008;-71
2023/10/07 03:33:50;;;;;;;3.28;1.30;;;;;;;15.99;51.13;100170.56;4383087;32;34952;-71
2023/10/07 03:41:35;;;;;;;6.53;1.80;;;;;;;15.65;52.91;100170.84;4389724;32;34921;-71
2023/10/07 03:44:03;;;;;;;5.68;1.50;;;;;;;15.85;51.97;100171.78;4382468;32;33607;-71
2023/10/07 03:46:34;;;;;;;2.60;1.02;;;;;;;15.57;53.11;100176.94;4389123;32;33418;-71
2023/10/07 03:49:06;;;;;;;7.47;2.17;;;;;;;15.71;52.40;100167.62;4378976;32;33942;-72
2023/10/07 03:51:35;;;;;;;3.50;1.77;;;;;;;15.34;53.42;100180.78;4384442;32;33746;-72
2023/10/07 03:54:10;;;;;;;6.53;2.53;;;;;;;15.48;53.46;100175.06;4388027;32;33732;-71
2023/10/07 03:56:38;;;;;;;3.72;2.28;;;;;;;15.52;53.86;100170.25;4386934;32;33488;-68
2023/10/07 03:59:06;;;;;;;2.65;1.48;;;;;;;15.37;54.42;100172.44;4388786;32;34501;-73
2023/10/07 04:01:35;;;;;;;6.30;2.75;;;;;;;15.47;54.39;100176.03;4385903;32;34122;-71
2023/10/07 04:04:06;;;;;;;3.75;2.33;;;;;;;15.62;54.01;100173.81;4383194;32;33654;-73
2023/10/07 04:06:35;;;;;;;6.70;3.37;;;;;;;15.71;53.86;100177.59;4386456;32;34266;-73
2023/10/07 04:09:07;;;;;;;5.35;2.67;;;;;;;15.68;54.27;100175.16;4387259;32;35259;-72
2023/10/07 04:11:36;;;;;;;5.70;1.80;;;;;;;15.69;53.88;100172.31;4383956;32;33948;-72
2023/10/07 04:14:08;;;;;;;2.95;1.17;;;;;;;15.50;54.15;100175.75;4389244;32;34796;-72
2023/10/07 04:16:36;;;;;;;5.93;2.75;;;;;;;15.35;54.14;100174.44;4385282;32;33421;-72
2023/10/07 04:21:45;;;;;;;4.30;2.20;;;;;;;15.54;53.62;100169.13;4389455;32;35038;-72
2023/10/07 04:24:13;;;;;;;7.80;1.92;;;;;;;15.37;53.55;100165.19;4386921;32;34764;-71
2023/10/07 04:26:51;;;;;;;6.20;2.70;;;;;;;15.32;53.48;100166.63;4390369;32;33343;-71
2023/10/07 04:29:24;;;;;;;5.00;1.92;;;;;;;15.39;53.34;100159.69;4383669;32;35500;-71
2023/10/07 04:31:53;;;;;;;5.72;1.85;;;;;;;15.40;53.37;100174.00;4384069;32;33859;-71
2023/10/07 04:34:21;;;;;;;1.90;1.50;;;;;;;15.36;53.85;100160.78;4387380;32;33774;-72
2023/10/07 04:40:27;;;;;;;2.15;1.30;;;;;;;15.42;53.15;100159.41;4382502;32;34147;-71
2023/10/07 04:45:23;;;;;;;3.90;1.80;;;;;;;15.35;53.56;100158.25;4341836;33;33371;-71
2023/10/07 04:47:57;;;;;;;3.72;1.45;;;;;;;15.16;53.89;100161.69;4338662;32;31719;-71
2023/10/07 04:50:36;;;;;;;4.25;1.65;;;;;;;15.14;53.83;100155.59;4339038;32;35141;-71
2023/10/07 04:53:05;;;;;;;1.52;1.42;;;;;;;15.08;54.14;100153.41;4333081;33;34056;-72
2023/10/07 04:55:33;;;;;;;4.65;1.48;;;;;;;14.81;54.96;100154.81;4341412;32;33588;-71
2023/10/07 04:58:03;;;;;;;4.45;2.15;;;;;;;14.75;55.23;100158.03;4342710;33;34064;-71
2023/10/07 05:03:14;;;;;;;2.70;1.58;;;;;;;14.81;55.00;100153.97;4340223;33;33700;-70
2023/10/07 05:05:45;;;;;;;6.22;3.22;;;;;;;14.70;55.54;100154.88;4343389;33;33845;-72
2023/10/07 05:08:19;;;;;;;1.08;0.90;;;;;;;14.60;56.04;100152.13;4341750;33;33810;-70
2023/10/07 05:10:52;;;;;;;2.10;1.40;;;;;;;14.78;55.50;100157.78;4335154;32;34793;-70
2023/10/07 05:13:21;;;;;;;4.05;2.65;;;;;;;14.61;56.15;100156.53;4343087;33;34783;-71
2023/10/07 05:15:49;;;;;;;11.35;5.12;;;;;;;14.75;55.86;100154.50;4335399;32;33667;-70
2023/10/07 05:18:17;;;;;;;5.37;2.62;;;;;;;14.73;56.06;100159.16;4342434;33;33306;-70
2023/10/07 05:20:48;;;;;;;3.00;2.25;;;;;;;14.83;55.98;100149.28;4341695;33;33753;-70
2023/10/07 05:23:17;;;;;;;1.08;0.98;;;;;;;14.79;56.15;100155.94;4380758;32;33796;-69
2023/10/07 05:25:48;;;;;;;2.67;1.67;;;;;;;14.88;56.46;100157.84;4387790;32;34730;-68
2023/10/07 05:28:21;;;;;;;4.18;2.20;;;;;;;14.65;57.20;100155.28;4388258;32;33330;-69
2023/10/07 05:30:50;;;;;;;2.80;1.80;;;;;;;15.16;55.73;100163.56;4386501;32;35151;-68
2023/10/07 05:33:20;;;;;;;3.90;2.25;;;;;;;15.19;55.66;100161.44;4390082;32;34837;-69
2023/10/07 05:35:49;;;;;;;6.37;2.60;;;;;;;15.36;55.58;100163.50;4389488;32;32570;-69
2023/10/07 05:38:17;;;;;;;6.03;2.30;;;;;;;15.53;55.27;100159.28;4380726;32;33269;-69
2023/10/07 05:40:47;;;;;;;4.95;2.20;;;;;;;15.60;55.21;100152.37;4388161;32;33663;-70
2023/10/07 05:43:14;;;;;;;3.75;1.83;;;;;;;15.71;55.26;100162.25;4389370;32;33657;-69
2023/10/07 05:45:45;;;;;;;3.62;2.05;;;;;;;15.86;55.15;100159.13;4388924;32;35517;-69
2023/10/07 05:48:12;;;;;;;7.80;3.17;;;;;;;16.06;54.94;100159.06;4386730;32;33675;-70
2023/10/07 05:50:40;;;;;;;4.60;2.08;;;;;;;15.93;56.08;100169.25;4382574;32;34778;-70
2023/10/07 05:53:07;;;;;;;5.07;2.75;;;;;;;16.47;54.91;100169.75;4388915;32;33776;-71
2023/10/07 05:55:36;;;;;;;7.40;3.03;;;;;;;16.93;53.61;100171.72;4385647;32;33798;-70
2023/10/07 05:58:04;;;;;;;5.03;2.12;;;;;;;17.38;52.78;100173.72;4387883;32;34052;-70
2023/10/07 06:00:32;;;;;;;4.43;2.50;;;;;;;17.76;51.96;100171.88;4390023;32;33611;-71
2023/10/07 06:03:05;;;;;;;7.25;3.37;;;;;;;18.54;49.61;100164.06;4379646;32;33973;-70
2023/10/07 06:05:37;;;;;;;5.12;2.58;;;;;;;18.50;49.73;100162.69;4370251;32;34948;-71
2023/10/07 06:08:06;;;;;;;7.90;3.25;;;;;;;18.15;50.65;100172.50;4369587;32;33230;-69
2023/10/07 06:10:33;;;;;;;5.32;2.80;;;;;;;18.18;50.74;100176.78;4376356;32;35075;-70
2023/10/07 06:13:08;;;;;;;4.00;2.60;;;;;;;18.13;50.94;100176.37;4371926;32;35001;-70
2023/10/07 06:15:39;;;;;;;7.87;2.55;;;;;;;18.08;51.25;100176.84;4370241;32;34131;-69
2023/10/07 06:18:07;;;;;;;6.43;3.03;;;;;;;18.09;51.43;100173.13;4367716;32;34624;-69
2023/10/07 06:20:37;;;;;;;8.15;3.08;;;;;;;18.05;51.73;100176.28;4373880;32;33467;-70
2023/10/07 06:23:15;;;;;;;8.98;3.87;;;;;;;18.08;51.74;100187.69;4370514;32;34072;-70
2023/10/07 06:25:51;;;;;;;4.30;2.28;;;;;;;18.15;51.49;100175.22;4363150;32;33733;-69
2023/10/07 06:28:29;;;;;;;6.05;2.47;;;;;;;18.15;51.73;100182.50;4372035;32;33556;-70
2023/10/07 06:31:10;;;;;;;13.38;3.65;;;;;;;18.18;51.54;100179.47;4367010;32;34250;-69
2023/10/07 06:34:12;;;;;;;7.25;2.85;;;;;;;18.21;51.64;100178.34;4357274;32;33795;-70
2023/10/07 06:36:42;;;;;;;4.47;2.42;;;;;;;18.12;52.05;100175.53;4365855;32;33721;-69
2023/10/07 06:39:10;;;;;;;12.35;4.22;;;;;;;18.23;52.04;100184.44;4371741;32;33536;-70
2023/10/07 06:41:42;;;;;;;6.85;3.05;;;;;;;18.23;52.11;100182.56;4379445;32;34182;-70
2023/10/07 06:44:10;;;;;;;4.87;3.10;;;;;;;18.04;52.74;100190.81;4365909;32;34203;-70
2023/10/07 06:46:41;;;;;;;15.48;3.35;;;;;;;18.24;52.15;100195.12;4364876;32;33859;-70
2023/10/07 06:49:19;;;;;;;8.38;3.50;;;;;;;18.33;51.78;100187.91;4365120;32;33252;-69
2023/10/07 06:51:56;;;;;;;5.80;3.28;;;;;;;18.36;51.65;100193.91;4365622;32;34889;-68
2023/10/07 06:54:25;;;;;;;7.35;3.08;;;;;;;18.45;51.47;100188.56;4368178;32;34257;-69
2023/10/07 06:56:55;;;;;;;3.87;2.20;;;;;;;18.43;51.55;100188.72;4363335;32;34803;-69
2023/10/07 06:59:29;;;;;;;10.35;3.92;;;;;;;18.44;51.46;100186.84;4374707;32;33369;-69
2023/10/07 07:02:05;;;;;;;5.05;3.45;;;;;;;18.51;51.10;100185.22;4372418;32;34613;-68
2023/10/07 07:04:35;;;;;;;5.90;2.90;;;;;;;18.57;50.78;100190.03;4381051;32;33815;-69
2023/10/07 07:07:10;;;;;;;9.95;2.92;;;;;;;18.57;50.81;100182.75;4389161;32;34307;-70
2023/10/07 07:12:12;;;;;;;9.63;3.40;;;;;;;18.51;51.11;100182.50;4390305;32;34616;-69
2023/10/07 07:14:50;;;;;;;7.82;2.72;;;;;;;18.78;50.60;100184.28;4376753;32;34938;-70
2023/10/07 07:22:47;;;;;;;7.05;3.10;;;;;;;18.94;50.81;100180.84;4384520;32;34102;-69
2023/10/07 07:25:29;;;;;;;5.82;2.45;;;;;;;19.01;50.95;100182.81;4377538;32;34216;-70
2023/10/07 07:28:00;;;;;;;7.03;3.15;;;;;;;18.78;51.13;100187.00;4384519;32;34323;-70
2023/10/07 07:30:35;;;;;;;10.65;4.07;;;;;;;19.32;49.90;100187.75;4387118;32;33258;-71
2023/10/07 07:33:08;;;;;;;8.60;4.05;;;;;;;19.54;49.48;100186.34;4382600;32;34738;-71
2023/10/07 07:35:40;;;;;;;5.53;2.97;;;;;;;19.67;49.28;100186.78;4378205;32;34144;-70
2023/10/07 07:41:09;;;;;;;10.40;3.62;;;;;;;19.72;48.80;100191.72;4379096;32;33445;-70
2023/10/07 07:43:39;;;;;;;8.95;4.07;;;;;;;19.89;48.93;100190.78;4381064;32;33748;-70
2023/10/07 07:46:18;;;;;;;5.28;2.50;;;;;;;19.91;48.35;100194.19;4376543;32;34170;-70
2023/10/07 07:48:48;;;;;;;6.35;3.87;;;;;;;20.01;48.42;100200.31;4379892;32;33805;-71
2023/10/07 07:51:20;;;;;;;9.52;2.65;;;;;;;19.88;48.54;100193.66;4394945;32;33138;-70
2023/10/07 07:53:48;;;;;;;5.32;2.37;;;;;;;19.95;48.40;100202.84;4375895;32;33669;-70
2023/10/07 07:56:17;;;;;;;11.65;5.12;;;;;;;19.91;48.79;100194.19;4379822;32;35254;-71
2023/10/07 07:58:48;;;;;;;8.57;3.92;;;;;;;19.80;48.39;100189.03;4389779;32;33534;-70
2023/10/07 08:01:28;;;;;;;7.32;3.35;;;;;;;19.77;48.30;100184.81;4379857;32;33431;-70
2023/10/07 08:04:03;;;;;;;5.53;3.03;;;;;;;19.84;48.69;100185.00;4389853;32;32985;-70
2023/10/07 08:06:34;;;;;;;6.82;2.72;;;;;;;20.03;48.28;100183.84;4377563;32;34502;-71
2023/10/07 08:09:03;;;;;;;6.55;2.67;;;;;;;20.09;48.11;100180.47;4377955;32;33784;-70
2023/10/07 08:11:35;;;;;;;9.73;5.07;;;;;;;20.10;48.72;100187.62;4381989;32;33109;-71
2023/10/07 08:14:12;;;;;;;7.12;2.83;;;;;;;19.88;49.45;100186.37;4382267;32;33572;-71
2023/10/07 08:16:52;;;;;;;4.78;2.37;;;;;;;19.94;49.13;100185.72;4376568;32;33735;-70
2023/10/07 08:19:20;;;;;;;5.03;2.75;;;;;;;20.32;48.60;100193.44;4355967;32;33439;-71
2023/10/07 08:21:52;;;;;;;5.32;3.08;;;;;;;20.25;48.61;100185.09;4339029;32;33991;-71
2023/10/07 08:24:21;;;;;;;11.12;4.22;;;;;;;20.02;49.02;100180.28;4330914;32;33709;-73
2023/10/07 08:26:49;;;;;;;9.00;4.18;;;;;;;19.98;48.59;100175.34;4334300;32;34014;-72
2023/10/07 08:29:32;;;;;;;7.65;3.85;;;;;;;20.30;48.09;100182.75;4332467;32;33395;-72
2023/10/07 08:32:08;;;;;;;5.53;2.78;;;;;;;19.99;48.76;100180.63;4331784;32;33281;-76
2023/10/07 08:34:37;;;;;;;6.87;3.15;;;;;;;20.41;48.02;100174.25;4349085;32;33144;-74
2023/10/07 08:37:14;;;;;;;7.00;3.67;;;;;;;20.34;47.96;100167.78;4338581;32;35298;-75
2023/10/07 08:39:46;;;;;;;8.57;3.35;;;;;;;20.56;47.23;100165.47;4331075;32;33772;-73
2023/10/07 08:42:18;;;;;;;7.55;2.92;;;;;;;20.08;47.73;100162.47;4333302;32;34189;-75
2023/10/07 08:44:58;;;;;;;10.73;3.17;;;;;;;20.21;47.56;100162.00;4333303;32;33915;-75
2023/10/07 08:47:27;;;;;;;5.57;2.97;;;;;;;19.96;48.40;100161.91;4335192;32;32578;-72
2023/10/07 08:49:56;;;;;;;7.50;3.22;;;;;;;20.23;47.53;100166.25;4331723;32;35000;-74
2023/10/07 08:52:29;;;;;;;7.78;3.15;;;;;;;20.22;48.01;100167.28;4334125;32;33143;-71
2023/10/07 08:54:59;;;;;;;4.40;2.22;;;;;;;20.35;48.02;100160.47;4334150;32;32479;-73
2023/10/07 08:57:27;;;;;;;8.45;3.33;;;;;;;20.50;47.06;100161.53;4372566;32;32767;-72
2023/10/07 08:59:59;;;;;;;4.47;2.50;;;;;;;20.75;46.33;100150.69;4386719;32;36239;-73
2023/10/07 09:02:30;;;;;;;7.62;3.95;;;;;;;20.85;46.37;100157.66;4383842;32;33295;-73
2023/10/07 09:04:58;;;;;;;10.25;2.83;;;;;;;20.74;46.05;100157.12;4379330;32;33976;-77
2023/10/07 09:07:31;;;;;;;7.22;2.87;;;;;;;20.52;47.68;100158.69;4376226;32;34102;-75
2023/10/07 09:10:17;;;;;;;5.55;3.10;;;;;;;20.83;46.71;100148.81;4382927;32;34042;-74
2023/10/07 09:12:51;;;;;;;5.43;2.62;;;;;;;21.24;45.59;100145.19;4375857;32;34090;-75
2023/10/07 09:15:26;;;;;;;6.93;2.55;;;;;;;21.23;45.49;100151.66;4359084;32;34827;-76
2023/10/07 09:18:03;;;;;;;4.32;2.50;;;;;;;21.23;45.35;100143.50;4361590;32;33774;-75
2023/10/07 09:20:35;;;;;;;5.47;3.10;;;;;;;21.06;46.34;100143.53;4357689;32;33495;-72
2023/10/07 09:23:07;;;;;;;6.43;3.28;;;;;;;21.42;45.25;100145.84;4358001;32;31393;-74
2023/10/07 09:25:35;;;;;;;7.95;3.95;;;;;;;21.12;45.40;100144.69;4359060;32;34855;-74
2023/10/07 09:28:06;;;;;;;8.10;2.40;;;;;;;21.11;44.53;100135.66;4362807;32;34322;-74
2023/10/07 09:30:37;;;;;;;6.30;3.42;;;;;;;20.81;45.26;100133.69;4361482;32;34617;-74
2023/10/07 09:33:14;;;;;;;6.07;2.50;;;;;;;21.00;45.59;100136.03;4358773;32;32007;-73
2023/10/07 09:35:43;;;;;;;6.53;3.58;;;;;;;21.41;44.87;100138.69;4362266;32;33624;-72
2023/10/07 09:38:33;;;;;;;7.20;3.53;;;;;;;21.72;43.13;100137.88;4363409;32;33786;-74
2023/10/07 09:44:02;;;;;;;6.35;2.10;;;;;;;21.40;44.04;100132.37;4317215;33;34204;-75
2023/10/07 09:46:39;;;;;;;7.32;2.65;;;;;;;21.58;43.93;100125.88;4307112;32;33476;-75
2023/10/07 09:49:07;;;;;;;6.20;2.55;;;;;;;21.96;43.29;100132.31;4321064;32;35103;-73
2023/10/07 09:51:41;;;;;;;8.25;3.42;;;;;;;22.05;43.40;100124.94;4328725;32;32536;-74
2023/10/07 09:54:27;;;;;;;7.80;3.45;;;;;;;21.77;43.83;100121.87;4330334;32;34057;-73
2023/10/07 09:57:14;;;;;;;9.30;3.50;;;;;;;22.35;42.73;100122.41;4329579;32;33537;-76
2023/10/07 10:03:30;;;;;;;9.68;3.15;;;;;;;22.18;41.41;100124.38;4325187;32;34351;-75
2023/10/07 10:06:17;;;;;;;4.25;2.22;;;;;;;22.23;41.04;100117.34;4317219;32;33207;-73
2023/10/07 10:08:45;;;;;;;5.03;3.08;;;;;;;22.19;41.51;100124.19;4330207;32;35096;-70
2023/10/07 10:11:30;;;;;;;9.10;3.25;;;;;;;22.53;39.90;100118.31;4330903;32;35207;-73
2023/10/07 10:16:54;;;;;;;8.30;3.50;;;;;;;22.11;40.02;100107.84;4326522;32;33261;-73
2023/10/07 10:19:44;;;;;;;8.88;2.58;;;;;;;22.16;40.70;100110.94;4344009;32;35106;-73
2023/10/07 10:22:13;;;;;;;4.93;2.62;;;;;;;21.70;41.17;100109.97;4378433;32;33841;-72
2023/10/07 10:24:42;;;;;;;7.07;4.10;;;;;;;22.08;40.83;100103.59;4382679;32;34881;-71
2023/10/07 10:27:13;;;;;;;8.60;4.03;;;;;;;22.14;40.07;100098.47;4379394;32;33517;-73
2023/10/07 10:30:06;;;;;;;6.18;2.47;;;;;;;22.46;40.55;100091.97;4366880;32;34700;-72
2023/10/07 10:32:36;;;;;;;11.00;3.30;;;;;;;22.54;39.10;100094.63;4380776;32;34774;-73
2023/10/07 10:35:11;;;;;;;8.52;3.40;;;;;;;22.47;38.87;100096.38;4384410;32;34859;-74
2023/10/07 10:37:38;;;;;;;8.97;3.80;;;;;;;22.73;38.57;100098.72;4380688;32;32863;-74
2023/10/07 10:40:14;;;;;;;6.87;3.08;;;;;;;22.64;39.50;100092.50;4380396;32;34683;-72
2023/10/07 10:42:47;;;;;;;5.87;2.65;;;;;;;22.85;38.51;100094.50;4375931;32;33795;-71
2023/10/07 10:45:24;;;;;;;8.23;3.47;;;;;;;22.74;39.41;100086.75;4377153;32;34582;-73
2023/10/07 10:47:54;;;;;;;7.75;3.55;;;;;;;22.64;38.84;100086.19;4377466;32;33521;-72
2023/10/07 10:50:28;;;;;;;6.82;2.97;;;;;;;23.05;38.46;100083.94;4376798;32;33816;-72
2023/10/07 10:52:59;;;;;;;7.43;3.05;;;;;;;23.21;38.63;100077.41;4378959;32;33554;-72
2023/10/07 10:55:34;;;;;;;9.68;3.85;;;;;;;23.29;38.66;100073.75;4378018;32;33163;-72
2023/10/07 10:58:02;;;;;;;;;;;;;;;23.25;38.93;100065.09;4378191;32;33031;-72
2023/10/07 11:00:30;;;;;;;8.68;4.20;;;;;;;23.33;38.16;100064.97;4381044;32;34014;-73
2023/10/07 11:03:01;;;;;;;8.77;3.90;;;;;;;23.52;36.80;100059.97;4380545;32;33794;-73
2023/10/07 11:05:29;;;;;;;7.07;3.47;;;;;;;23.79;36.00;100048.34;4378196;32;35237;-73
2023/10/07 11:07:57;;;;;;;6.78;2.70;;;;;;;24.23;35.44;100043.75;4374944;32;34150;-72
2023/10/07 11:10:24;;;;;;;4.82;2.72;;;;;;;24.29;35.72;100043.78;4362624;32;34762;-72
2023/10/07 11:12:54;;;;;;;8.68;3.95;;;;;;;24.62;34.14;100035.03;4387032;32;33947;-73
2023/10/07 11:15:25;;;;;;;6.97;2.67;;;;;;;24.27;34.14;100032.22;4376913;32;34355;-73
2023/10/07 11:17:54;;;;;;;8.63;3.37;;;;;;;24.57;32.83;100032.06;4383545;32;34326;-72
2023/10/07 11:20:24;;;;;;;9.32;3.12;;;;;;;24.61;33.12;100026.00;4379479;32;33457;-73
2023/10/07 11:22:53;;;;;;;8.30;3.87;;;;;;;24.61;32.59;100028.72;4377076;32;34273;-71
2023/10/07 11:25:25;;;;;;;5.40;2.75;;;;;;;24.38;33.52;100018.00;4378905;32;33662;-71
2023/10/07 11:27:54;;;;;;;6.30;2.87;;;;;;;24.34;32.54;100019.44;4384416;32;33287;-71
2023/10/07 11:30:22;;;;;;;5.85;2.58;;;;;;;24.48;32.61;100022.31;4389424;32;33653;-70
2023/10/07 11:32:49;;;;;;;5.35;2.42;;;;;;;24.60;31.72;100018.84;4384049;32;34053;-71
2023/10/07 11:35:27;;;;;;;5.00;2.12;;;;;;;24.61;31.19;100019.69;4382199;32;33729;-70
2023/10/07 11:37:59;;;;;;;5.32;2.17;;;;;;;24.63;31.13;100017.59;4382317;32;33266;-71
2023/10/07 11:40:31;;;;;;;6.62;2.95;;;;;;;24.66;30.81;100011.72;4387045;32;34562;-70
2023/10/07 11:43:04;;;;;;;5.28;2.28;;;;;;;24.14;31.40;100010.19;4383046;32;33811;-72
2023/10/07 11:45:32;;;;;;;8.47;3.07;;;;;;;24.22;31.63;100014.72;4380447;32;34879;-72
2023/10/07 11:48:00;;;;;;;8.52;3.67;;;;;;;24.66;30.68;100003.53;4378465;32;32233;-72
2023/10/07 11:50:29;;;;;;;3.95;2.17;;;;;;;24.59;30.40;99999.88;4377024;32;34670;-72
2023/10/07 11:52:58;;;;;;;6.00;3.05;;;;;;;24.79;29.95;99994.56;4361606;32;33675;-70
2023/10/07 11:55:27;;;;;;;6.60;2.72;;;;;;;24.92;29.94;100005.56;4377112;32;33590;-71
2023/10/07 11:57:54;;;;;;;7.68;3.67;;;;;;;24.64;29.46;100002.87;4377283;32;32096;-70
2023/10/07 12:00:34;;;;;;;7.15;2.78;;;;;;;24.82;28.49;99995.00;4382351;32;34359;-70
2023/10/07 12:03:06;;;;;;;6.62;2.78;;;;;;;24.64;29.78;99992.75;4384723;32;35303;-70
2023/10/07 12:05:38;;;;;;;6.57;2.80;;;;;;;25.02;29.61;99995.09;4377614;32;34951;-71
2023/10/07 12:08:08;;;;;;;7.10;2.50;;;;;;;25.35;29.25;99991.69;4385907;32;33441;-71
2023/10/07 12:10:38;;;;;;;3.80;2.10;;;;;;;25.01;30.04;99987.94;4374601;32;34643;-71
2023/10/07 12:13:07;;;;;;;5.62;2.03;;;;;;;25.01;29.68;99985.19;4380913;32;33692;-70
2023/10/07 12:15:34;;;;;;;6.47;2.95;;;;;;;24.96;30.16;99981.38;4384528;32;33487;-71
2023/10/07 12:18:16;;;;;;;4.43;2.30;;;;;;;24.33;31.91;99987.69;4382743;32;33378;-71
2023/10/07 12:20:44;;;;;;;8.52;3.83;;;;;;;24.62;31.97;99981.19;4379717;32;33363;-71
2023/10/07 12:23:12;;;;;;;6.95;2.90;;;;;;;24.64;33.00;99980.97;4385859;32;33886;-69
2023/10/07 12:25:41;;;;;;;7.05;3.22;;;;;;;24.68;31.77;99985.00;4387933;32;33753;-70
2023/10/07 12:28:09;;;;;;;5.90;2.87;;;;;;;24.61;32.72;99971.25;4395017;32;33584;-70
2023/10/07 12:30:37;;;;;;;5.93;2.80;;;;;;;24.89;32.59;99973.13;4393261;32;32090;-71
2023/10/07 12:33:05;;;;;;;4.85;2.25;;;;;;;24.52;33.51;99968.88;4394052;32;35263;-70
2023/10/07 12:35:38;;;;;;;4.00;1.75;;;;;;;24.41;33.33;99970.28;4384823;32;34014;-72
2023/10/07 12:38:06;;;;;;;7.28;2.55;;;;;;;24.33;33.82;99968.53;4386241;32;33562;-70
2023/10/07 12:40:34;;;;;;;5.43;2.28;;;;;;;24.81;33.55;99976.00;4378190;32;33732;-69